createdAt,value
2019-05-15T00:01:19.784Z,58.89
2019-05-15T00:03:49.403Z,58.93
2019-05-15T00:06:19.144Z,58.96
2019-05-15T00:08:48.374Z,59.00
2019-05-15T00:11:19.231Z,58.88
2019-05-15T00:13:48.548Z,58.91
2019-05-15T00:16:18.145Z,59.11
2019-05-15T00:18:48.238Z,58.95
2019-05-15T00:21:18.027Z,59.15
2019-05-15T00:23:49.361Z,59.31
2019-05-15T00:26:18.276Z,59.80
2019-05-15T00:28:47.959Z,60.19
2019-05-15T00:31:18.659Z,59.95
2019-05-15T00:33:48.317Z,60.26
2019-05-15T00:36:19.256Z,60.17
2019-05-15T00:38:48.715Z,60.22
2019-05-15T00:41:18.510Z,60.06
2019-05-15T00:43:49.419Z,60.28
2019-05-15T00:46:18.755Z,60.29
2019-05-15T00:48:48.768Z,60.35
2019-05-15T00:51:19.527Z,60.71
2019-05-15T00:53:48.939Z,60.46
2019-05-15T00:56:19.432Z,60.52
2019-05-15T00:58:48.862Z,60.55
2019-05-15T01:01:19.302Z,60.75
2019-05-15T01:03:49.297Z,60.89
2019-05-15T01:06:19.117Z,61.09
2019-05-15T01:08:48.396Z,61.18
2019-05-15T01:11:19.234Z,61.44
2019-05-15T01:13:48.505Z,61.48
2019-05-15T01:16:18.633Z,61.51
2019-05-15T01:18:49.096Z,61.70
2019-05-15T01:21:18.878Z,61.44
2019-05-15T01:23:48.481Z,61.67
2019-05-15T01:26:18.826Z,62.27
2019-05-15T01:28:49.414Z,62.43
2019-05-15T01:31:19.138Z,62.54
2019-05-15T01:33:48.364Z,62.73
2019-05-15T01:36:19.301Z,62.62
2019-05-15T01:38:48.296Z,62.29
2019-05-15T01:41:18.893Z,62.52
2019-05-15T01:43:48.981Z,62.38
2019-05-15T01:46:19.106Z,62.27
2019-05-15T01:48:49.290Z,62.48
2019-05-15T01:51:18.631Z,63.05
2019-05-15T01:53:48.162Z,62.97
2019-05-15T01:56:18.878Z,62.86
2019-05-15T01:58:48.686Z,62.99
2019-05-15T02:01:19.167Z,63.13
2019-05-15T02:03:49.333Z,62.98
2019-05-15T02:06:18.992Z,62.92
2019-05-15T02:08:49.667Z,62.84
2019-05-15T02:11:19.100Z,62.92
2019-05-15T02:13:48.200Z,62.95
2019-05-15T02:16:19.197Z,62.68
2019-05-15T02:18:48.894Z,62.92
2019-05-15T02:21:18.452Z,62.96
2019-05-15T02:23:48.193Z,63.41
2019-05-15T02:26:18.843Z,63.20
2019-05-15T02:28:48.822Z,63.61
2019-05-15T02:31:19.607Z,63.64
2019-05-15T02:33:49.826Z,63.73
2019-05-15T02:36:20.678Z,63.84
2019-05-15T02:38:50.142Z,63.95
2019-05-15T02:41:19.667Z,64.04
2019-05-15T02:43:50.078Z,64.21
2019-05-15T02:46:19.706Z,63.70
2019-05-15T02:48:49.159Z,64.30
2019-05-15T02:51:19.441Z,64.08
2019-05-15T02:53:49.978Z,64.77
2019-05-15T02:56:20.489Z,64.04
2019-05-15T02:58:49.923Z,64.53
2019-05-15T03:01:19.197Z,64.54
2019-05-15T03:03:49.796Z,64.57
2019-05-15T03:06:19.476Z,64.40
2019-05-15T03:08:49.666Z,64.82
2019-05-15T03:11:19.200Z,65.27
2019-05-15T03:13:50.322Z,65.19
2019-05-15T03:16:19.657Z,65.37
2019-05-15T03:18:50.448Z,65.61
2019-05-15T03:21:19.651Z,65.99
2019-05-15T03:23:50.621Z,66.31
2019-05-15T03:26:19.934Z,66.64
2019-05-15T03:28:49.716Z,66.65
2019-05-15T03:31:40.655Z,66.64
2019-05-15T03:33:54.137Z,66.06
2019-05-15T03:36:23.545Z,66.45
2019-05-15T03:38:51.536Z,66.34
2019-05-15T03:41:20.635Z,66.60
2019-05-15T03:43:49.946Z,66.74
2019-05-15T03:46:20.006Z,67.23
2019-05-15T03:48:49.360Z,67.11
2019-05-15T03:51:19.827Z,67.19
2019-05-15T03:53:49.867Z,67.09
2019-05-15T03:56:19.432Z,67.10
2019-05-15T03:58:49.545Z,67.06
2019-05-15T04:01:29.922Z,66.88
2019-05-15T04:03:49.918Z,66.85
2019-05-15T04:06:19.499Z,67.23
2019-05-15T04:08:49.604Z,66.88
2019-05-15T04:11:20.263Z,67.40
2019-05-15T04:13:50.152Z,67.21
2019-05-15T04:16:19.432Z,67.48
2019-05-15T04:18:49.242Z,67.46
2019-05-15T04:21:20.114Z,67.27
2019-05-15T04:23:50.557Z,67.35
2019-05-15T04:26:21.557Z,67.82
2019-05-15T04:28:52.500Z,67.86
2019-05-15T04:31:21.702Z,67.79
2019-05-15T04:33:50.873Z,67.71
2019-05-15T04:36:19.993Z,67.94
2019-05-15T04:38:50.011Z,68.52
2019-05-15T04:41:19.846Z,68.37
2019-05-15T04:43:49.693Z,68.00
2019-05-15T04:46:19.864Z,67.95
2019-05-15T04:48:50.113Z,68.05
2019-05-15T04:51:19.676Z,67.64
2019-05-15T04:53:50.264Z,67.60
2019-05-15T04:56:19.858Z,67.37
2019-05-15T04:58:50.674Z,67.66
2019-05-15T05:01:20.395Z,67.55
2019-05-15T05:03:49.869Z,67.33
2019-05-15T05:06:21.024Z,67.26
2019-05-15T05:08:50.155Z,67.15
2019-05-15T05:11:21.789Z,67.35
2019-05-15T05:13:50.088Z,66.79
2019-05-15T05:16:19.395Z,66.41
2019-05-15T05:18:48.954Z,66.77
2019-05-15T05:21:18.492Z,66.46
2019-05-15T05:23:48.339Z,66.34
2019-05-15T05:26:18.615Z,66.25
2019-05-15T05:28:48.660Z,65.84
2019-05-15T05:31:19.139Z,65.76
2019-05-15T05:33:48.764Z,65.90
2019-05-15T05:36:18.494Z,65.42
2019-05-15T05:38:49.364Z,64.93
2019-05-15T05:41:19.068Z,64.53
2019-05-15T05:43:48.839Z,64.20
2019-05-15T05:46:18.564Z,63.80
2019-05-15T05:48:48.998Z,61.71
2019-05-15T05:51:19.038Z,60.25
2019-05-15T05:53:48.438Z,57.75
2019-05-15T05:56:18.154Z,57.25
2019-05-15T05:58:49.236Z,56.62
2019-05-15T06:01:18.893Z,53.15
2019-05-15T06:03:49.149Z,54.10
2019-05-15T06:06:18.768Z,51.31
2019-05-15T06:08:48.169Z,52.31
2019-05-15T06:11:18.376Z,52.28
2019-05-15T06:16:14.402Z,52.93
2019-05-15T06:18:43.502Z,52.57
2019-05-15T06:21:12.652Z,50.49
2019-05-15T06:23:45.757Z,51.20
2019-05-15T06:26:12.651Z,48.13
2019-05-15T06:28:41.765Z,46.13
2019-05-15T06:31:10.908Z,46.20
2019-05-15T06:33:40.058Z,46.98
2019-05-15T06:36:09.345Z,47.37
2019-05-15T06:38:39.331Z,48.11
2019-05-15T06:41:08.984Z,45.41
2019-05-15T06:43:38.847Z,44.04
2019-05-15T06:46:09.248Z,44.81
2019-05-15T06:48:38.491Z,46.27
2019-05-15T06:51:08.891Z,44.41
2019-05-15T06:53:38.591Z,46.52
2019-05-15T06:56:08.173Z,46.04
2019-05-15T06:58:38.455Z,44.54
2019-05-15T07:01:08.776Z,42.04
2019-05-15T07:03:39.365Z,42.34
2019-05-15T07:06:09.678Z,41.50
2019-05-15T07:08:38.974Z,43.10
2019-05-15T07:11:08.846Z,39.98
2019-05-15T07:13:38.571Z,41.65
2019-05-15T07:16:08.232Z,41.01
2019-05-15T07:18:39.174Z,40.80
2019-05-15T07:21:10.232Z,41.63
2019-05-15T07:23:39.427Z,39.20
2019-05-15T07:26:09.600Z,40.04
2019-05-15T07:28:38.886Z,38.89
2019-05-15T07:31:11.588Z,41.34
2019-05-15T07:33:43.355Z,40.34
2019-05-15T07:36:09.761Z,39.83
2019-05-15T07:38:39.291Z,38.68
2019-05-15T07:41:10.261Z,38.18
2019-05-15T07:43:39.344Z,37.47
2019-05-15T07:46:08.689Z,37.47
2019-05-15T07:48:38.531Z,35.65
2019-05-15T07:51:11.650Z,36.52
2019-05-15T07:53:38.714Z,36.25
2019-05-15T07:56:11.891Z,34.39
2019-05-15T07:58:38.864Z,34.41
2019-05-15T08:01:09.958Z,33.57
2019-05-15T08:03:55.056Z,33.90
2019-05-15T08:06:59.166Z,32.43
2019-05-15T08:09:28.974Z,32.16
2019-05-15T08:12:00.132Z,32.21
2019-05-15T08:14:29.237Z,33.15
2019-05-15T08:16:59.148Z,33.23
2019-05-15T08:19:29.002Z,33.00
2019-05-15T08:21:58.340Z,32.15
2019-05-15T08:24:29.771Z,33.30
2019-05-15T08:26:58.343Z,32.56
2019-05-15T08:29:28.821Z,32.46
2019-05-15T08:31:59.031Z,31.40
2019-05-15T08:34:28.348Z,31.59
2019-05-15T08:36:59.020Z,30.93
2019-05-15T08:39:28.609Z,30.92
2019-05-15T08:41:58.455Z,31.12
2019-05-15T08:44:29.296Z,32.41
2019-05-15T08:46:59.131Z,31.70
2019-05-15T08:49:28.537Z,32.19
2019-05-15T08:51:58.400Z,30.64
2019-05-15T08:54:29.025Z,31.19
2019-05-15T08:56:59.157Z,32.49
2019-05-15T08:59:29.491Z,29.15
2019-05-15T09:01:58.906Z,30.39
2019-05-15T09:04:34.623Z,30.64
2019-05-15T09:07:01.332Z,31.21
2019-05-15T09:09:29.959Z,30.87
2019-05-15T09:11:59.106Z,30.34
2019-05-15T09:14:28.646Z,29.95
2019-05-15T09:16:58.349Z,29.40
2019-05-15T09:19:28.094Z,29.09
2019-05-15T09:21:58.482Z,30.50
2019-05-15T09:24:28.594Z,30.59
2019-05-15T09:26:59.493Z,30.47
2019-05-15T09:29:29.044Z,30.66
2019-05-15T09:32:00.302Z,29.27
2019-05-15T09:34:46.384Z,29.54
2019-05-15T09:37:00.384Z,29.90
2019-05-15T09:39:29.610Z,30.24
2019-05-15T09:41:58.740Z,29.81
2019-05-15T09:44:28.324Z,30.96
2019-05-15T09:46:58.420Z,32.23
2019-05-15T09:49:28.624Z,31.23
2019-05-15T09:51:58.546Z,29.87
2019-05-15T09:54:28.886Z,30.82
2019-05-15T09:56:58.706Z,30.14
2019-05-15T09:59:28.241Z,29.39
2019-05-15T10:01:58.866Z,29.60
2019-05-15T10:04:28.876Z,29.38
2019-05-15T10:06:58.230Z,27.26
2019-05-15T10:09:28.466Z,30.34
2019-05-15T10:11:57.844Z,28.63
2019-05-15T10:14:29.426Z,29.65
2019-05-15T10:16:58.536Z,30.30
2019-05-15T10:19:29.030Z,29.27
2019-05-15T10:21:59.483Z,29.20
2019-05-15T10:24:28.806Z,28.15
2019-05-15T10:26:58.158Z,28.92
2019-05-15T10:29:28.163Z,27.79
2019-05-15T10:31:57.589Z,28.20
2019-05-15T10:34:28.761Z,28.58
2019-05-15T10:36:58.911Z,28.58
2019-05-15T10:39:28.776Z,28.16
2019-05-15T10:41:58.153Z,27.31
2019-05-15T10:44:28.513Z,27.80
2019-05-15T10:46:58.572Z,28.50
2019-05-15T10:49:28.325Z,27.88
2019-05-15T10:51:57.547Z,28.83
2019-05-15T10:54:29.056Z,28.68
2019-05-15T10:57:00.543Z,28.73
2019-05-15T10:59:28.377Z,27.67
2019-05-15T11:01:59.088Z,27.30
2019-05-15T11:04:28.936Z,28.96
2019-05-15T11:06:58.191Z,29.91
2019-05-15T11:09:28.636Z,27.88
2019-05-15T11:11:58.423Z,29.06
2019-05-15T11:14:28.691Z,29.28
2019-05-15T11:16:58.975Z,30.09
2019-05-15T11:19:35.513Z,30.02
2019-05-15T11:21:59.125Z,29.85
2019-05-15T11:24:32.257Z,29.58
2019-05-15T11:26:59.560Z,30.17
2019-05-15T11:29:28.733Z,30.21
2019-05-15T11:31:58.202Z,30.04
2019-05-15T11:34:28.967Z,29.68
2019-05-15T11:36:59.332Z,28.60
2019-05-15T11:39:28.990Z,27.31
2019-05-15T11:41:58.304Z,27.58
2019-05-15T11:44:28.251Z,28.06
2019-05-15T11:46:58.651Z,28.27
2019-05-15T11:49:29.026Z,28.98
2019-05-15T11:52:00.502Z,28.93
2019-05-15T11:54:29.397Z,29.77
2019-05-15T11:56:59.633Z,30.37
2019-05-15T11:59:30.090Z,30.21
2019-05-15T12:01:59.386Z,29.79
2019-05-15T12:04:33.820Z,29.39
2019-05-15T12:07:02.529Z,28.70
2019-05-15T12:09:30.325Z,28.90
2019-05-15T12:11:59.447Z,27.08
2019-05-15T12:14:29.573Z,27.24
2019-05-15T12:17:10.094Z,26.83
2019-05-15T12:19:30.051Z,26.87
2019-05-15T12:21:59.970Z,26.87
2019-05-15T12:27:13.884Z,27.01
2019-05-15T12:29:30.896Z,28.32
2019-05-15T12:32:11.713Z,28.31
2019-05-15T12:34:30.900Z,26.51
2019-05-15T12:37:00.046Z,28.42
2019-05-15T12:39:30.279Z,28.23
2019-05-15T13:02:05.219Z,24.31
2019-05-15T13:04:34.311Z,26.70
2019-05-15T13:07:12.989Z,27.54
2019-05-15T13:09:34.340Z,27.43
2019-05-15T13:12:03.500Z,26.91
2019-05-15T13:14:32.641Z,27.73
2019-05-15T13:17:01.796Z,27.50
2019-05-15T13:19:30.930Z,25.97
2019-05-15T13:22:00.103Z,26.03
2019-05-15T13:24:29.228Z,26.80
2019-05-15T13:26:58.471Z,26.28
2019-05-15T13:29:28.986Z,27.31
2019-05-15T13:31:58.596Z,26.77
2019-05-15T13:34:30.616Z,26.89
2019-05-15T13:36:59.252Z,27.58
2019-05-15T13:39:28.632Z,27.28
2019-05-15T13:41:58.469Z,26.42
2019-05-15T13:44:29.335Z,26.78
2019-05-15T13:46:58.637Z,26.79
2019-05-15T13:49:28.259Z,26.63
2019-05-15T13:51:59.303Z,26.51
2019-05-15T13:54:28.814Z,25.65
2019-05-15T13:56:58.291Z,26.10
2019-05-15T13:59:28.637Z,26.41
2019-05-15T14:01:59.437Z,25.60
2019-05-15T14:04:29.866Z,25.57
2019-05-15T14:06:59.193Z,26.46
2019-05-15T14:09:33.334Z,26.69
2019-05-15T14:11:59.654Z,26.38
2019-05-15T14:14:28.897Z,26.21
2019-05-15T14:16:59.244Z,26.41
2019-05-15T14:19:28.515Z,26.62
2019-05-15T14:21:58.510Z,26.17
2019-05-15T14:24:27.825Z,25.49
2019-05-15T14:26:59.356Z,26.74
2019-05-15T14:29:29.165Z,27.61
2019-05-15T14:31:58.574Z,27.41
2019-05-15T14:34:29.102Z,28.66
2019-05-15T14:36:59.158Z,28.68
2019-05-15T14:39:28.466Z,29.08
2019-05-15T14:41:58.360Z,29.21
2019-05-15T14:44:27.715Z,28.58
2019-05-15T14:46:58.224Z,27.68
2019-05-15T14:49:34.443Z,26.86
2019-05-15T14:52:07.876Z,27.52
2019-05-15T14:54:29.768Z,27.51
2019-05-15T14:56:58.989Z,27.13
2019-05-15T14:59:28.159Z,27.22
2019-05-15T15:01:58.066Z,27.82
2019-05-15T15:04:29.019Z,28.28
2019-05-15T15:06:58.536Z,27.66
2019-05-15T15:09:28.229Z,27.73
2019-05-15T15:11:57.422Z,27.65
2019-05-15T15:14:28.521Z,28.55
2019-05-15T15:16:57.409Z,28.74
2019-05-15T15:19:29.127Z,29.30
2019-05-15T15:21:58.088Z,29.21
2019-05-15T15:24:27.246Z,29.09
2019-05-15T15:26:58.647Z,28.83
2019-05-15T15:29:28.104Z,28.30
2019-05-15T15:31:58.979Z,28.32
2019-05-15T15:34:28.447Z,28.11
2019-05-15T15:36:58.034Z,28.01
2019-05-15T15:39:28.138Z,28.16
2019-05-15T15:41:57.858Z,27.61
2019-05-15T15:44:28.072Z,28.61
2019-05-15T15:46:59.128Z,28.96
2019-05-15T15:49:28.447Z,29.12
2019-05-15T15:51:58.149Z,29.18
2019-05-15T15:54:28.132Z,28.87
2019-05-15T15:56:57.317Z,29.39
2019-05-15T15:59:28.826Z,29.49
2019-05-15T16:01:59.867Z,29.32
2019-05-15T16:04:28.365Z,29.26
2019-05-15T16:06:58.873Z,29.61
2019-05-15T16:09:28.229Z,29.13
2019-05-15T16:11:58.341Z,29.68
2019-05-15T16:14:28.662Z,30.73
2019-05-15T16:16:57.968Z,30.66
2019-05-15T16:19:28.403Z,31.68
2019-05-15T16:21:59.583Z,32.45
2019-05-15T16:24:29.287Z,32.67
2019-05-15T16:27:00.961Z,32.99
2019-05-15T16:29:29.436Z,32.87
2019-05-15T16:31:58.552Z,33.45
2019-05-15T16:34:28.372Z,33.72
2019-05-15T16:36:58.563Z,33.76
2019-05-15T16:39:28.714Z,34.50
2019-05-15T16:41:59.388Z,34.74
2019-05-15T16:44:29.042Z,33.76
2019-05-15T16:46:58.809Z,34.20
2019-05-15T16:49:28.556Z,33.86
2019-05-15T16:51:58.306Z,33.99
2019-05-15T16:54:28.839Z,34.31
2019-05-15T16:56:59.457Z,34.05
2019-05-15T16:59:35.541Z,34.09
2019-05-15T17:01:59.743Z,34.02
2019-05-15T17:04:29.102Z,33.99
2019-05-15T17:06:58.666Z,34.02
2019-05-15T17:09:28.154Z,34.19
2019-05-15T17:11:58.195Z,33.56
2019-05-15T17:14:28.715Z,33.31
2019-05-15T17:16:58.706Z,34.13
2019-05-15T17:19:29.320Z,32.71
2019-05-15T17:21:58.939Z,33.10
2019-05-15T17:24:28.189Z,32.99
2019-05-15T17:26:59.650Z,33.76
2019-05-15T17:29:29.216Z,33.28
2019-05-15T17:31:58.521Z,32.66
2019-05-15T17:34:28.604Z,33.17
2019-05-15T17:36:58.604Z,33.48
2019-05-15T17:39:36.582Z,33.73
2019-05-15T17:41:59.303Z,34.07
2019-05-15T17:44:28.823Z,34.31
2019-05-15T17:46:58.557Z,34.03
2019-05-15T17:49:28.102Z,33.77
2019-05-15T17:51:58.228Z,33.67
2019-05-15T17:54:28.723Z,34.19
2019-05-15T17:56:58.545Z,35.18
2019-05-15T17:59:28.670Z,35.05
2019-05-15T18:01:59.563Z,34.96
2019-05-15T18:04:28.842Z,34.91
2019-05-15T18:06:59.124Z,34.83
2019-05-15T18:09:28.455Z,35.03
2019-05-15T18:11:58.674Z,35.24
2019-05-15T18:14:28.017Z,35.17
2019-05-15T18:16:58.560Z,35.06
2019-05-15T18:19:27.891Z,35.24
2019-05-15T18:21:59.234Z,35.29
2019-05-15T18:24:28.211Z,35.14
2019-05-15T18:26:58.429Z,35.07
2019-05-15T18:29:27.865Z,34.89
2019-05-15T18:31:56.980Z,34.69
2019-05-15T18:34:28.617Z,34.84
2019-05-15T18:36:57.884Z,35.08
2019-05-15T18:39:28.362Z,35.41
2019-05-15T18:41:57.854Z,35.84
2019-05-15T18:44:28.343Z,35.81
2019-05-15T18:46:58.205Z,35.20
2019-05-15T18:49:28.512Z,35.31
2019-05-15T18:51:58.275Z,35.72
2019-05-15T18:54:28.028Z,36.16
2019-05-15T18:56:58.465Z,36.60
2019-05-15T18:59:27.902Z,37.18
2019-05-15T19:01:58.631Z,37.80
2019-05-15T19:04:28.827Z,37.46
2019-05-15T19:06:58.412Z,37.03
2019-05-15T19:09:28.207Z,37.56
2019-05-15T19:11:58.198Z,36.97
2019-05-15T19:14:28.055Z,36.75
2019-05-15T19:16:59.126Z,37.02
2019-05-15T19:19:28.273Z,37.41
2019-05-15T19:21:58.224Z,37.77
2019-05-15T19:24:27.535Z,37.24
2019-05-15T19:26:58.615Z,37.30
2019-05-15T19:29:28.436Z,38.09
2019-05-15T19:31:57.738Z,38.75
2019-05-15T19:34:28.117Z,38.15
2019-05-15T19:36:58.199Z,37.89
2019-05-15T19:39:27.998Z,38.86
2019-05-15T19:41:58.265Z,39.41
2019-05-15T19:44:28.481Z,39.66
2019-05-15T19:46:58.541Z,39.74
2019-05-15T19:49:27.979Z,40.05
2019-05-15T19:51:58.083Z,40.61
2019-05-15T19:54:28.886Z,40.81
2019-05-15T19:56:58.636Z,41.13
2019-05-15T19:59:29.499Z,41.48
2019-05-15T20:01:58.923Z,41.47
2019-05-15T20:04:28.128Z,41.43
2019-05-15T20:06:57.309Z,41.58
2019-05-15T20:09:27.843Z,41.61
2019-05-15T20:11:58.569Z,41.60
2019-05-15T20:14:28.850Z,41.38
2019-05-15T20:16:58.995Z,40.99
2019-05-15T20:19:28.719Z,40.88
2019-05-15T20:21:58.318Z,41.01
2019-05-15T20:24:28.756Z,40.69
2019-05-15T20:26:57.994Z,40.76
2019-05-15T20:29:28.946Z,40.78
2019-05-15T20:31:58.669Z,40.99
2019-05-15T20:34:28.708Z,41.00
2019-05-15T20:36:58.936Z,40.85
2019-05-15T20:39:28.069Z,40.95
2019-05-15T20:41:58.311Z,40.95
2019-05-15T20:44:27.650Z,41.09
2019-05-15T20:46:58.940Z,41.00
2019-05-15T20:49:28.601Z,41.10
2019-05-15T20:51:58.283Z,41.37
2019-05-15T20:54:28.431Z,41.50
2019-05-15T20:56:58.313Z,41.62
2019-05-15T20:59:27.712Z,41.62
2019-05-15T21:01:59.360Z,41.43
2019-05-15T21:04:28.106Z,41.46
2019-05-15T21:06:57.330Z,41.40
2019-05-15T21:09:28.460Z,41.10
2019-05-15T21:11:58.811Z,40.89
2019-05-15T21:14:27.956Z,40.70
2019-05-15T21:16:59.053Z,40.48
2019-05-15T21:19:28.118Z,40.30
2019-05-15T21:21:57.411Z,40.14
2019-05-15T21:24:28.372Z,40.08
2019-05-15T21:26:58.134Z,39.96
2019-05-15T21:29:28.475Z,39.86
2019-05-15T21:31:58.090Z,39.13
2019-05-15T21:34:36.912Z,39.27
2019-05-15T21:36:59.066Z,39.11
2019-05-15T21:39:30.270Z,39.04
2019-05-15T21:41:59.180Z,38.81
2019-05-15T21:44:29.371Z,38.68
2019-05-15T21:46:58.826Z,38.45
2019-05-15T21:49:28.272Z,38.54
2019-05-15T21:51:58.397Z,38.69
2019-05-15T21:54:28.214Z,38.85
2019-05-15T21:57:11.141Z,39.08
2019-05-15T21:59:28.491Z,39.26
2019-05-15T22:01:58.951Z,39.35
2019-05-15T22:04:30.467Z,39.35
2019-05-15T22:06:59.065Z,39.30
2019-05-15T22:09:29.067Z,39.33
2019-05-15T22:12:01.176Z,39.57
2019-05-15T22:14:30.560Z,39.63
2019-05-15T22:17:00.071Z,39.73
2019-05-15T22:19:30.314Z,39.73
2019-05-15T22:21:59.541Z,39.89
2019-05-15T22:24:28.932Z,40.08
2019-05-15T22:26:58.686Z,40.37
2019-05-15T22:29:28.854Z,40.19
2019-05-15T22:31:59.050Z,40.22
2019-05-15T22:34:28.625Z,40.12
2019-05-15T22:36:58.337Z,40.14
2019-05-15T22:39:28.049Z,40.29
2019-05-15T22:41:57.439Z,40.64
2019-05-15T22:44:28.185Z,40.96
2019-05-15T22:46:58.163Z,40.94
2019-05-15T22:49:28.823Z,41.27
2019-05-15T22:51:58.222Z,41.36
2019-05-15T22:54:28.052Z,41.27
2019-05-15T22:56:57.732Z,41.62
2019-05-15T22:59:28.375Z,41.66
2019-05-15T23:01:58.180Z,41.24
2019-05-15T23:04:30.595Z,41.28
2019-05-15T23:06:59.727Z,42.05
2019-05-15T23:09:28.864Z,42.36
2019-05-15T23:11:58.818Z,42.35
2019-05-15T23:14:28.729Z,42.18
2019-05-15T23:16:58.977Z,41.67
2019-05-15T23:19:28.324Z,41.32
2019-05-15T23:21:59.120Z,41.09
2019-05-15T23:24:28.369Z,41.05
2019-05-15T23:26:58.323Z,41.18
2019-05-15T23:29:27.553Z,41.31
2019-05-15T23:31:58.375Z,41.62
2019-05-15T23:34:28.059Z,41.68
2019-05-15T23:36:57.720Z,41.40
2019-05-15T23:39:26.926Z,41.44
2019-05-15T23:41:58.337Z,41.53
2019-05-15T23:44:27.731Z,41.66
2019-05-15T23:46:56.887Z,41.67
2019-05-15T23:49:27.853Z,41.74
2019-05-15T23:51:58.198Z,41.69
2019-05-15T23:54:27.982Z,41.95
2019-05-15T23:56:58.388Z,41.96
2019-05-15T23:59:28.189Z,41.92
